Time;durP1;ratioP1;P1;durP2;ratioP2;P2;SDS_P1;SDS_P2;PMS_P1;PMS_P2;Temp;Humidity;BMP_temperature;BMP_pressure;BME280_temperature;BME280_humidity;BME280_pressure;Samples;Min_cycle;Max_cycle;Signal;HPM_P1;HPM_P2
2024/02/21 00:01:59;;;;;;;14.90;7.40;;;;;;;;;;137705;1273;22130;-79
2024/02/21 00:05:02;;;;;;;12.60;6.70;;;;;;;;;;137666;1273;22117;-79
2024/02/21 00:08:05;;;;;;;14.40;7.30;;;;;;;;;;137704;1273;22125;-80
2024/02/21 00:11:07;;;;;;;17.40;6.80;;;;;;;;;;137681;1273;22108;-80
2024/02/21 00:14:10;;;;;;;18.50;6.90;;;;;;;;;;137699;1273;22514;-81
2024/02/21 00:17:12;;;;;;;14.00;7.00;;;;;;;;;;137692;1273;22523;-80
2024/02/21 00:20:15;;;;;;;12.70;6.00;;;;;;;;;;137710;1273;22056;-80
2024/02/21 00:23:17;;;;;;;12.80;6.20;;;;;;;;;;137726;1273;22085;-82
2024/02/21 00:26:20;;;;;;;14.70;6.30;;;;;;;;;;137643;1273;22097;-81
2024/02/21 00:29:22;;;;;;;12.50;6.00;;;;;;;;;;137683;1273;22084;-81
2024/02/21 00:32:25;;;;;;;12.40;6.40;;;;;;;;;;137630;1273;22057;-79
2024/02/21 00:35:27;;;;;;;13.50;6.30;;;;;;;;;;137636;1273;22182;-80
2024/02/21 00:38:30;;;;;;;11.90;7.10;;;;;;;;;;137669;1273;22166;-80
2024/02/21 00:41:32;;;;;;;11.60;6.30;;;;;;;;;;137662;1273;22066;-80
2024/02/21 00:44:35;;;;;;;10.50;6.80;;;;;;;;;;137683;1273;22079;-82
2024/02/21 00:47:38;;;;;;;16.40;7.20;;;;;;;;;;137647;1273;22080;-81
2024/02/21 00:50:40;;;;;;;18.10;6.50;;;;;;;;;;137710;1273;22063;-82
2024/02/21 00:53:43;;;;;;;14.40;6.30;;;;;;;;;;137633;1273;22641;-81
2024/02/21 00:56:45;;;;;;;12.60;6.70;;;;;;;;;;137676;1273;22180;-81
2024/02/21 00:59:48;;;;;;;11.70;6.30;;;;;;;;;;137651;1270;22125;-82
2024/02/21 01:02:51;;;;;;;11.70;5.40;;;;;;;;;;137703;1273;22168;-82
2024/02/21 01:05:53;;;;;;;15.00;6.80;;;;;;;;;;137711;1273;22271;-81
2024/02/21 01:08:56;;;;;;;11.50;5.00;;;;;;;;;;137650;1273;22336;-79
2024/02/21 01:11:58;;;;;;;10.60;5.00;;;;;;;;;;137614;1273;22133;-80
2024/02/21 01:15:01;;;;;;;9.80;4.30;;;;;;;;;;137647;1273;22207;-80
2024/02/21 01:18:04;;;;;;;9.40;5.30;;;;;;;;;;137658;1273;22116;-79
2024/02/21 01:21:07;;;;;;;13.40;4.60;;;;;;;;;;137694;1273;22825;-80
2024/02/21 01:24:10;;;;;;;10.30;4.90;;;;;;;;;;137614;1273;22112;-80
2024/02/21 01:27:12;;;;;;;8.70;4.90;;;;;;;;;;137651;1273;22245;-79
2024/02/21 01:30:15;;;;;;;9.50;5.00;;;;;;;;;;137587;1275;22160;-79
2024/02/21 01:33:17;;;;;;;9.90;5.00;;;;;;;;;;137609;1276;22157;-79
2024/02/21 01:36:20;;;;;;;8.10;4.80;;;;;;;;;;137612;1272;22119;-80
2024/02/21 01:39:22;;;;;;;12.60;5.80;;;;;;;;;;137586;1276;22148;-79
2024/02/21 01:42:25;;;;;;;15.80;6.30;;;;;;;;;;137596;1276;22646;-81
2024/02/21 01:45:27;;;;;;;19.20;6.80;;;;;;;;;;137584;1276;22052;-81
2024/02/21 01:48:30;;;;;;;15.30;6.10;;;;;;;;;;137628;1276;22283;-81
2024/02/21 01:51:32;;;;;;;14.30;6.00;;;;;;;;;;137569;1275;22132;-80
2024/02/21 01:54:35;;;;;;;14.90;5.00;;;;;;;;;;137571;1275;22334;-79
2024/02/21 01:57:37;;;;;;;16.50;6.40;;;;;;;;;;137554;1276;22105;-81
2024/02/21 02:00:40;;;;;;;9.70;4.90;;;;;;;;;;137612;1276;22342;-80
2024/02/21 02:03:42;;;;;;;9.20;4.00;;;;;;;;;;137563;1276;22203;-79
2024/02/21 02:06:45;;;;;;;11.90;5.60;;;;;;;;;;137570;1269;22536;-80
2024/02/21 02:09:47;;;;;;;10.30;4.70;;;;;;;;;;137541;1275;22046;-79
2024/02/21 02:12:50;;;;;;;13.40;4.70;;;;;;;;;;137572;1276;22131;-82
2024/02/21 02:15:52;;;;;;;13.80;5.20;;;;;;;;;;137602;1276;22136;-82
2024/02/21 02:18:55;;;;;;;13.50;5.00;;;;;;;;;;137569;1275;22225;-82
2024/02/21 02:21:57;;;;;;;11.70;5.50;;;;;;;;;;137588;1276;22088;-82
2024/02/21 02:25:00;;;;;;;9.50;4.40;;;;;;;;;;137557;1275;22107;-80
2024/02/21 02:28:02;;;;;;;10.00;4.90;;;;;;;;;;137585;1275;22079;-80
2024/02/21 02:31:04;;;;;;;13.90;5.20;;;;;;;;;;137587;1276;22092;-80
2024/02/21 02:34:07;;;;;;;13.10;5.40;;;;;;;;;;137576;1276;22162;-80
2024/02/21 02:37:09;;;;;;;14.30;5.70;;;;;;;;;;137575;1275;22608;-80
2024/02/21 02:40:12;;;;;;;11.80;5.00;;;;;;;;;;137587;1276;22117;-80
2024/02/21 02:43:15;;;;;;;13.40;5.40;;;;;;;;;;137558;1275;22139;-82
2024/02/21 02:46:17;;;;;;;15.20;5.60;;;;;;;;;;137570;1276;22062;-81
2024/02/21 02:49:20;;;;;;;14.90;5.50;;;;;;;;;;137599;1272;22083;-80
2024/02/21 02:52:22;;;;;;;14.60;5.30;;;;;;;;;;137549;1275;22528;-79
2024/02/21 02:55:25;;;;;;;14.00;6.10;;;;;;;;;;137502;1276;22123;-80
2024/02/21 02:58:28;;;;;;;11.20;5.70;;;;;;;;;;137551;1275;22163;-80
2024/02/21 03:01:30;;;;;;;14.30;6.00;;;;;;;;;;137590;1275;22190;-80
2024/02/21 03:04:33;;;;;;;13.40;6.20;;;;;;;;;;137473;1275;22220;-81
2024/02/21 03:07:36;;;;;;;12.60;6.30;;;;;;;;;;137467;1275;22119;-81
2024/02/21 03:10:38;;;;;;;16.20;6.70;;;;;;;;;;137504;1276;22786;-83
2024/02/21 03:13:40;;;;;;;22.00;6.80;;;;;;;;;;137589;1275;22273;-82
2024/02/21 03:16:43;;;;;;;22.20;6.40;;;;;;;;;;137587;1275;22275;-84
2024/02/21 03:19:45;;;;;;;18.10;5.70;;;;;;;;;;137587;1276;22152;-83
2024/02/21 03:22:48;;;;;;;15.20;6.60;;;;;;;;;;137563;1275;22566;-82
2024/02/21 03:25:53;;;;;;;19.40;7.40;;;;;;;;;;137586;1275;22216;-83
2024/02/21 03:28:55;;;;;;;22.20;13.70;;;;;;;;;;137633;1275;22126;-82
2024/02/21 03:31:58;;;;;;;13.10;7.10;;;;;;;;;;137630;1275;22218;-81
2024/02/21 03:35:01;;;;;;;14.20;5.60;;;;;;;;;;137530;1275;22079;-81
2024/02/21 03:38:03;;;;;;;16.30;5.70;;;;;;;;;;137475;1275;22408;-81
2024/02/21 03:41:06;;;;;;;15.30;5.70;;;;;;;;;;137493;1275;22285;-83
2024/02/21 03:44:08;;;;;;;13.70;6.30;;;;;;;;;;137435;1275;22612;-81
2024/02/21 03:47:11;;;;;;;13.40;5.40;;;;;;;;;;137455;1275;22169;-82
2024/02/21 03:50:13;;;;;;;11.30;5.70;;;;;;;;;;137407;1276;22132;-82
2024/02/21 03:53:16;;;;;;;13.60;5.40;;;;;;;;;;137405;1276;22087;-82
2024/02/21 03:56:18;;;;;;;12.60;6.10;;;;;;;;;;137441;1267;22126;-81
2024/02/21 03:59:22;;;;;;;16.70;6.00;;;;;;;;;;137409;1275;22131;-81
2024/02/21 04:02:24;;;;;;;15.70;6.30;;;;;;;;;;137409;1276;22719;-81
2024/02/21 04:05:27;;;;;;;15.00;6.50;;;;;;;;;;137324;1275;22126;-81
2024/02/21 04:08:29;;;;;;;15.50;6.40;;;;;;;;;;137376;1276;22135;-81
2024/02/21 04:11:32;;;;;;;18.70;6.90;;;;;;;;;;137413;1275;22603;-82
2024/02/21 04:14:34;;;;;;;16.50;7.60;;;;;;;;;;137419;1276;22132;-82
2024/02/21 04:17:37;;;;;;;24.70;8.70;;;;;;;;;;137444;1261;22129;-82
2024/02/21 04:20:39;;;;;;;13.80;8.10;;;;;;;;;;137417;1276;22123;-82
2024/02/21 04:23:42;;;;;;;21.10;7.90;;;;;;;;;;137502;1275;22166;-81
2024/02/21 04:26:44;;;;;;;15.60;6.30;;;;;;;;;;137623;1276;22420;-81
2024/02/21 04:29:47;;;;;;;13.90;6.30;;;;;;;;;;137588;1276;22182;-82
2024/02/21 04:32:49;;;;;;;14.80;6.70;;;;;;;;;;137523;1276;22127;-80
2024/02/21 04:35:54;;;;;;;16.30;7.00;;;;;;;;;;137482;1276;22267;-80
2024/02/21 04:39:00;;;;;;;;;;;;;;;;;;137487;1276;22275;-82
2024/02/21 04:42:02;;;;;;;20.10;7.40;;;;;;;;;;137362;1276;22118;-81
2024/02/21 04:45:05;;;;;;;12.90;7.20;;;;;;;;;;137408;1276;22113;-81
2024/02/21 04:48:07;;;;;;;15.30;7.40;;;;;;;;;;137411;1276;22221;-81
2024/02/21 04:51:10;;;;;;;20.00;7.00;;;;;;;;;;137409;1275;22154;-81
2024/02/21 04:54:12;;;;;;;14.00;7.60;;;;;;;;;;137370;1276;22130;-82
2024/02/21 04:57:16;;;;;;;16.20;7.50;;;;;;;;;;137388;1275;22117;-83
2024/02/21 05:00:19;;;;;;;16.80;7.70;;;;;;;;;;137387;1276;22443;-82
2024/02/21 05:03:21;;;;;;;19.40;8.10;;;;;;;;;;137342;1276;22218;-82
2024/02/21 05:06:24;;;;;;;18.20;7.50;;;;;;;;;;137353;1276;22161;-82
2024/02/21 05:09:27;;;;;;;15.10;7.10;;;;;;;;;;137351;1276;22662;-82
2024/02/21 05:12:30;;;;;;;22.50;9.70;;;;;;;;;;137354;1276;22567;-82
2024/02/21 05:15:32;;;;;;;16.00;8.40;;;;;;;;;;137362;1275;22132;-81
2024/02/21 05:18:35;;;;;;;21.80;8.10;;;;;;;;;;137371;1275;22970;-81
2024/02/21 05:21:37;;;;;;;21.10;7.70;;;;;;;;;;137358;1276;22139;-82
2024/02/21 05:24:40;;;;;;;15.20;7.00;;;;;;;;;;137343;1276;22154;-80
2024/02/21 05:27:42;;;;;;;18.80;8.30;;;;;;;;;;137322;1276;22299;-82
2024/02/21 05:30:45;;;;;;;17.70;7.50;;;;;;;;;;137352;1276;22082;-82
2024/02/21 05:33:47;;;;;;;19.30;8.00;;;;;;;;;;137380;1276;22574;-84
2024/02/21 05:36:50;;;;;;;19.20;8.20;;;;;;;;;;137354;1276;22117;-79
2024/02/21 05:39:53;;;;;;;26.50;8.50;;;;;;;;;;137357;1275;22143;-81
2024/02/21 05:42:55;;;;;;;24.10;8.10;;;;;;;;;;137339;1276;22903;-81
2024/02/21 05:45:58;;;;;;;22.90;9.10;;;;;;;;;;137372;1270;22282;-81
2024/02/21 05:49:00;;;;;;;30.60;11.00;;;;;;;;;;137391;1276;22198;-82
2024/02/21 05:52:03;;;;;;;30.90;9.10;;;;;;;;;;137374;1276;22144;-83
2024/02/21 05:55:05;;;;;;;23.70;8.80;;;;;;;;;;137394;1275;22164;-84
2024/02/21 05:58:10;;;;;;;24.30;7.90;;;;;;;;;;137401;1260;22152;-82
2024/02/21 06:01:12;;;;;;;20.90;9.30;;;;;;;;;;137403;1276;22125;-83
2024/02/21 06:04:20;;;;;;;25.60;7.30;;;;;;;;;;137373;1276;22513;-82
2024/02/21 06:07:22;;;;;;;22.10;7.10;;;;;;;;;;137435;1276;22622;-84
2024/02/21 06:10:25;;;;;;;27.50;8.30;;;;;;;;;;137340;1270;22081;-82
2024/02/21 06:13:27;;;;;;;18.10;7.30;;;;;;;;;;137447;1275;22203;-82
2024/02/21 06:16:30;;;;;;;33.60;8.10;;;;;;;;;;137378;1275;22184;-82
2024/02/21 06:19:32;;;;;;;26.20;8.20;;;;;;;;;;137374;1275;22999;-83
2024/02/21 06:22:35;;;;;;;18.20;7.80;;;;;;;;;;137363;1270;22589;-82
2024/02/21 06:25:37;;;;;;;28.30;8.60;;;;;;;;;;137430;1275;22131;-83
2024/02/21 06:28:40;;;;;;;15.60;8.10;;;;;;;;;;137439;1275;22183;-82
2024/02/21 06:31:42;;;;;;;29.30;7.80;;;;;;;;;;137489;1276;22693;-82
2024/02/21 06:34:45;;;;;;;17.10;8.00;;;;;;;;;;137446;1275;22136;-83
2024/02/21 06:37:50;;;;;;;28.10;8.00;;;;;;;;;;137408;1275;22507;-82
2024/02/21 06:40:54;;;;;;;16.30;7.50;;;;;;;;;;137514;1276;22288;-83
2024/02/21 06:43:56;;;;;;;20.10;8.60;;;;;;;;;;137469;1275;22147;-83
2024/02/21 06:46:59;;;;;;;18.20;7.90;;;;;;;;;;137484;1273;22163;-84
2024/02/21 06:50:02;;;;;;;52.60;10.10;;;;;;;;;;137510;1276;22587;-83
2024/02/21 06:53:06;;;;;;;21.30;7.90;;;;;;;;;;137409;1272;22061;-82
2024/02/21 06:56:08;;;;;;;26.20;9.50;;;;;;;;;;137443;1275;22191;-83
2024/02/21 06:59:15;;;;;;;20.30;7.80;;;;;;;;;;137489;1275;22199;-84
2024/02/21 07:02:20;;;;;;;16.30;8.00;;;;;;;;;;137457;1276;22142;-83
2024/02/21 07:05:23;;;;;;;34.90;9.10;;;;;;;;;;137463;1272;22537;-84
2024/02/21 07:08:26;;;;;;;14.80;7.20;;;;;;;;;;137478;1275;22096;-83
2024/02/21 07:11:28;;;;;;;21.40;8.70;;;;;;;;;;137445;1263;22171;-83
2024/02/21 07:14:31;;;;;;;18.70;8.00;;;;;;;;;;137441;1275;22185;-83
2024/02/21 07:17:33;;;;;;;39.70;8.00;;;;;;;;;;137433;1269;22212;-84
2024/02/21 07:20:37;;;;;;;34.80;8.40;;;;;;;;;;137494;1275;22230;-82
2024/02/21 07:23:40;;;;;;;29.20;8.80;;;;;;;;;;137477;1276;22121;-82
2024/02/21 07:26:42;;;;;;;26.30;7.60;;;;;;;;;;137492;1275;22108;-79
2024/02/21 07:29:49;;;;;;;19.40;7.20;;;;;;;;;;137466;1275;22924;-82
2024/02/21 07:32:51;;;;;;;16.20;7.20;;;;;;;;;;137570;1275;22192;-80
2024/02/21 07:35:54;;;;;;;19.80;6.90;;;;;;;;;;137491;1269;22171;-81
2024/02/21 07:38:56;;;;;;;15.90;7.00;;;;;;;;;;137464;1275;22146;-82
2024/02/21 07:41:59;;;;;;;20.00;7.90;;;;;;;;;;137387;1272;22195;-82
2024/02/21 07:45:03;;;;;;;15.60;7.20;;;;;;;;;;137375;1275;22137;-83
2024/02/21 07:48:05;;;;;;;18.40;6.50;;;;;;;;;;137438;1275;22762;-80
2024/02/21 07:51:08;;;;;;;18.20;7.20;;;;;;;;;;137418;1275;22074;-79
2024/02/21 07:54:10;;;;;;;23.70;7.00;;;;;;;;;;137445;1276;22151;-82
2024/02/21 07:57:13;;;;;;;19.00;7.00;;;;;;;;;;137407;1275;22164;-82
2024/02/21 08:00:19;;;;;;;17.30;7.00;;;;;;;;;;137383;1275;22226;-82
2024/02/21 08:03:22;;;;;;;17.30;6.90;;;;;;;;;;137414;1275;22300;-82
2024/02/21 08:06:26;;;;;;;24.00;7.00;;;;;;;;;;137438;1275;22713;-83
2024/02/21 08:09:29;;;;;;;13.70;6.40;;;;;;;;;;137339;1275;22120;-84
2024/02/21 08:12:32;;;;;;;21.40;7.80;;;;;;;;;;137478;1275;22194;-82
2024/02/21 08:15:39;;;;;;;24.30;10.40;;;;;;;;;;137506;1275;22182;-82
2024/02/21 08:18:43;;;;;;;24.60;10.40;;;;;;;;;;137480;1275;22175;-80
2024/02/21 08:21:46;;;;;;;39.20;19.00;;;;;;;;;;137469;1276;22120;-83
2024/02/21 08:24:49;;;;;;;17.70;7.80;;;;;;;;;;137501;1275;22103;-83
2024/02/21 08:27:52;;;;;;;20.40;8.30;;;;;;;;;;137400;1275;22637;-80
2024/02/21 08:30:54;;;;;;;17.30;8.30;;;;;;;;;;137400;1276;22144;-83
2024/02/21 08:34:02;;;;;;;29.60;9.20;;;;;;;;;;137406;1275;22120;-83
2024/02/21 08:37:04;;;;;;;20.80;7.30;;;;;;;;;;137408;1275;22635;-82
2024/02/21 08:40:09;;;;;;;22.10;7.60;;;;;;;;;;137417;1275;22148;-84
2024/02/21 08:43:12;;;;;;;17.00;7.20;;;;;;;;;;137461;1276;22141;-83
2024/02/21 08:46:17;;;;;;;21.20;7.90;;;;;;;;;;137496;1275;22111;-83
2024/02/21 08:49:20;;;;;;;17.30;8.00;;;;;;;;;;137485;1276;22204;-81
2024/02/21 08:52:22;;;;;;;15.00;7.10;;;;;;;;;;137471;1276;22160;-83
2024/02/21 08:55:27;;;;;;;17.30;7.10;;;;;;;;;;137390;1276;22122;-83
2024/02/21 08:58:29;;;;;;;16.70;6.60;;;;;;;;;;137377;1275;22154;-83
2024/02/21 09:01:34;;;;;;;20.10;7.00;;;;;;;;;;137435;1276;22166;-82
2024/02/21 09:04:36;;;;;;;16.60;6.70;;;;;;;;;;137418;1276;22156;-81
2024/02/21 09:07:39;;;;;;;16.20;7.00;;;;;;;;;;137227;1275;220394;-83
2024/02/21 09:10:43;;;;;;;15.40;6.90;;;;;;;;;;137413;1276;22280;-82
2024/02/21 09:13:45;;;;;;;15.50;6.60;;;;;;;;;;137409;1276;22221;-81
2024/02/21 09:16:48;;;;;;;21.00;6.50;;;;;;;;;;137401;1275;22100;-81
2024/02/21 09:19:54;;;;;;;18.80;6.70;;;;;;;;;;137403;1276;22112;-85
2024/02/21 09:23:00;;;;;;;17.90;7.30;;;;;;;;;;137390;1276;22121;-80
2024/02/21 09:26:04;;;;;;;14.50;6.80;;;;;;;;;;137430;1276;22126;-80
2024/02/21 09:29:06;;;;;;;18.10;6.70;;;;;;;;;;137429;1276;22880;-85
2024/02/21 09:32:09;;;;;;;16.20;6.50;;;;;;;;;;137413;1275;22593;-83
2024/02/21 09:35:15;;;;;;;21.50;7.40;;;;;;;;;;137380;1276;22184;-86
2024/02/21 09:38:18;;;;;;;18.60;6.10;;;;;;;;;;137361;1275;22199;-84
2024/02/21 09:41:21;;;;;;;13.80;6.40;;;;;;;;;;137283;1275;22148;-84
2024/02/21 09:44:24;;;;;;;14.50;5.70;;;;;;;;;;137461;1275;22533;-84
2024/02/21 09:47:27;;;;;;;16.50;5.70;;;;;;;;;;137410;1275;22180;-84
2024/02/21 09:50:29;;;;;;;14.80;6.40;;;;;;;;;;137483;1275;22137;-85
2024/02/21 09:53:32;;;;;;;15.20;7.40;;;;;;;;;;137414;1275;22125;-84
2024/02/21 09:56:38;;;;;;;11.90;5.80;;;;;;;;;;137407;1269;22881;-82
2024/02/21 09:59:41;;;;;;;12.90;5.40;;;;;;;;;;137465;1275;22235;-84
2024/02/21 10:02:44;;;;;;;14.40;6.10;;;;;;;;;;137434;1275;22533;-84
2024/02/21 10:05:46;;;;;;;21.90;6.80;;;;;;;;;;137350;1272;22164;-83
2024/02/21 10:08:51;;;;;;;15.00;6.90;;;;;;;;;;137399;1275;22181;-84
2024/02/21 10:11:53;;;;;;;13.20;6.40;;;;;;;;;;137382;1275;22102;-83
2024/02/21 10:14:56;;;;;;;14.40;6.20;;;;;;;;;;137404;1275;22122;-81
2024/02/21 10:17:59;;;;;;;14.90;6.50;;;;;;;;;;137398;1275;22587;-83
2024/02/21 10:21:01;;;;;;;17.70;6.10;;;;;;;;;;137428;1275;23265;-82
2024/02/21 10:24:04;;;;;;;21.50;6.80;;;;;;;;;;137484;1275;22145;-81
2024/02/21 10:27:08;;;;;;;15.50;6.80;;;;;;;;;;137554;1275;22144;-80
2024/02/21 10:30:10;;;;;;;17.00;6.70;;;;;;;;;;137506;1275;22171;-83
2024/02/21 10:33:13;;;;;;;19.00;6.30;;;;;;;;;;137494;1275;22127;-84
2024/02/21 10:36:16;;;;;;;15.10;6.80;;;;;;;;;;137498;1275;22155;-83
2024/02/21 10:39:19;;;;;;;14.70;7.20;;;;;;;;;;137450;1275;22183;-84
2024/02/21 10:42:22;;;;;;;20.70;7.80;;;;;;;;;;137421;1275;22115;-82
2024/02/21 10:45:24;;;;;;;19.20;6.70;;;;;;;;;;137392;1275;22294;-83
2024/02/21 10:48:27;;;;;;;22.80;6.40;;;;;;;;;;137365;1275;22126;-84
2024/02/21 10:51:29;;;;;;;24.10;7.50;;;;;;;;;;137364;1276;22154;-84
2024/02/21 10:54:32;;;;;;;14.50;6.90;;;;;;;;;;137371;1275;22115;-83
2024/02/21 10:57:34;;;;;;;41.50;9.10;;;;;;;;;;137362;1264;22168;-84
2024/02/21 11:00:37;;;;;;;37.10;7.60;;;;;;;;;;137340;1275;22563;-83
2024/02/21 11:03:39;;;;;;;15.40;6.80;;;;;;;;;;137365;1275;22215;-83
2024/02/21 11:06:42;;;;;;;27.30;7.10;;;;;;;;;;137363;1275;22350;-83
2024/02/21 11:09:44;;;;;;;34.30;7.60;;;;;;;;;;137353;1274;22110;-80
2024/02/21 11:12:47;;;;;;;26.60;7.20;;;;;;;;;;137358;1275;22277;-81
2024/02/21 11:15:49;;;;;;;27.70;7.60;;;;;;;;;;137357;1275;22299;-83
2024/02/21 11:18:52;;;;;;;16.60;7.70;;;;;;;;;;137356;1275;22169;-83
2024/02/21 11:21:55;;;;;;;20.20;7.40;;;;;;;;;;137383;1276;22128;-84
2024/02/21 11:24:58;;;;;;;19.70;7.50;;;;;;;;;;137406;1276;22126;-83
2024/02/21 11:28:00;;;;;;;19.00;7.90;;;;;;;;;;137358;1275;22149;-84
2024/02/21 11:31:03;;;;;;;18.90;8.60;;;;;;;;;;137392;1276;22153;-82
2024/02/21 11:34:07;;;;;;;20.40;7.30;;;;;;;;;;137355;1275;22711;-81
2024/02/21 11:37:09;;;;;;;24.50;8.40;;;;;;;;;;137380;1275;23082;-84
2024/02/21 11:40:12;;;;;;;25.20;7.80;;;;;;;;;;137427;1270;22842;-83
2024/02/21 11:43:15;;;;;;;23.50;8.00;;;;;;;;;;137360;1275;22157;-84
2024/02/21 11:46:20;;;;;;;25.70;7.60;;;;;;;;;;137383;1266;22118;-84
2024/02/21 11:49:23;;;;;;;21.60;7.90;;;;;;;;;;137450;1275;22204;-85
2024/02/21 11:52:27;;;;;;;23.70;7.50;;;;;;;;;;137436;1275;22171;-84
2024/02/21 11:55:30;;;;;;;22.90;6.70;;;;;;;;;;137441;1275;22255;-83
2024/02/21 11:58:32;;;;;;;16.60;6.90;;;;;;;;;;137410;1275;22116;-83
2024/02/21 12:01:38;;;;;;;19.80;7.40;;;;;;;;;;137425;1276;22640;-84
2024/02/21 12:04:40;;;;;;;15.70;6.20;;;;;;;;;;137434;1275;22179;-83
2024/02/21 12:07:43;;;;;;;15.10;6.70;;;;;;;;;;137427;1275;22159;-83
2024/02/21 12:10:51;;;;;;;15.90;6.80;;;;;;;;;;137423;1276;22325;-81
2024/02/21 12:13:53;;;;;;;27.00;8.40;;;;;;;;;;137433;1275;22623;-83
2024/02/21 12:16:56;;;;;;;26.90;7.60;;;;;;;;;;137421;1275;22607;-83
2024/02/21 12:19:59;;;;;;;22.40;6.30;;;;;;;;;;137385;1275;22475;-84
2024/02/21 12:23:04;;;;;;;31.80;7.10;;;;;;;;;;137378;1272;22131;-80
2024/02/21 12:26:07;;;;;;;14.30;6.80;;;;;;;;;;137321;1275;22202;-83
2024/02/21 12:29:10;;;;;;;25.00;7.30;;;;;;;;;;137314;1275;22280;-82
2024/02/21 12:32:12;;;;;;;22.70;7.30;;;;;;;;;;137359;1266;22164;-83
2024/02/21 12:35:17;;;;;;;34.70;7.40;;;;;;;;;;137327;1275;22097;-83
2024/02/21 12:38:20;;;;;;;43.20;7.90;;;;;;;;;;137327;1276;22952;-83
2024/02/21 12:41:25;;;;;;;25.90;6.20;;;;;;;;;;137408;1275;22612;-84
2024/02/21 12:44:28;;;;;;;20.30;6.00;;;;;;;;;;137458;1275;22134;-84
2024/02/21 12:47:30;;;;;;;27.60;6.70;;;;;;;;;;137367;1276;22540;-78
2024/02/21 12:50:33;;;;;;;22.30;7.10;;;;;;;;;;137316;1276;22088;-84
2024/02/21 12:53:36;;;;;;;18.30;6.70;;;;;;;;;;137342;1276;22454;-85
2024/02/21 12:56:39;;;;;;;27.80;7.40;;;;;;;;;;137352;1275;22525;-85
2024/02/21 12:59:54;;;;;;;25.00;7.30;;;;;;;;;;137420;1275;22103;-85
2024/02/21 13:02:57;;;;;;;21.30;7.40;;;;;;;;;;137250;1275;22126;-86
2024/02/21 13:06:00;;;;;;;21.00;6.50;;;;;;;;;;137330;1275;22293;-83
2024/02/21 13:09:03;;;;;;;23.50;7.60;;;;;;;;;;137288;1276;22136;-81
2024/02/21 13:12:06;;;;;;;14.60;6.90;;;;;;;;;;137379;1276;22079;-85
2024/02/21 13:15:11;;;;;;;18.30;6.90;;;;;;;;;;137354;1276;22070;-84
2024/02/21 13:18:19;;;;;;;22.20;7.70;;;;;;;;;;137347;1276;22122;-81
2024/02/21 13:21:22;;;;;;;13.80;6.50;;;;;;;;;;137337;1276;22105;-83
2024/02/21 13:24:24;;;;;;;14.20;6.60;;;;;;;;;;137433;1276;22132;-84
2024/02/21 13:27:27;;;;;;;16.20;7.30;;;;;;;;;;137468;1269;22167;-85
2024/02/21 13:30:33;;;;;;;19.50;8.00;;;;;;;;;;137458;1275;22141;-84
2024/02/21 13:33:36;;;;;;;22.20;9.00;;;;;;;;;;137346;1276;22126;-85
2024/02/21 13:36:41;;;;;;;18.60;6.70;;;;;;;;;;137448;1275;22117;-84
2024/02/21 13:39:46;;;;;;;15.10;6.70;;;;;;;;;;137355;1275;22186;-85
2024/02/21 13:42:51;;;;;;;14.80;5.80;;;;;;;;;;137351;1276;22320;-85
2024/02/21 13:45:53;;;;;;;16.30;6.00;;;;;;;;;;137377;1275;22134;-83
2024/02/21 13:48:56;;;;;;;13.20;5.20;;;;;;;;;;137356;1276;22197;-83
2024/02/21 13:52:00;;;;;;;18.10;5.90;;;;;;;;;;137359;1276;22553;-86
2024/02/21 13:55:03;;;;;;;15.90;7.40;;;;;;;;;;137380;1276;22177;-83
2024/02/21 13:58:06;;;;;;;15.00;6.80;;;;;;;;;;137326;1275;22122;-85
2024/02/21 14:01:12;;;;;;;14.00;5.80;;;;;;;;;;137401;1275;22130;-85
2024/02/21 14:04:18;;;;;;;24.40;6.20;;;;;;;;;;137399;1275;22018;-85
2024/02/21 14:07:22;;;;;;;17.40;6.10;;;;;;;;;;137404;1276;22128;-85
2024/02/21 14:10:28;;;;;;;16.00;5.50;;;;;;;;;;137385;1276;22244;-86
2024/02/21 14:13:34;;;;;;;16.60;6.30;;;;;;;;;;137372;1276;22165;-86
2024/02/21 14:16:37;;;;;;;10.40;6.00;;;;;;;;;;137384;1275;22523;-83
2024/02/21 14:19:40;;;;;;;12.70;5.80;;;;;;;;;;137340;1275;22279;-84
2024/02/21 14:22:42;;;;;;;14.10;5.70;;;;;;;;;;137285;1275;22373;-82
2024/02/21 14:25:45;;;;;;;14.40;5.50;;;;;;;;;;137268;1273;22637;-84
2024/02/21 14:28:47;;;;;;;11.20;5.50;;;;;;;;;;137318;1275;22173;-83
2024/02/21 14:31:50;;;;;;;12.70;6.20;;;;;;;;;;137316;1275;22123;-84
2024/02/21 14:34:52;;;;;;;13.10;5.50;;;;;;;;;;137347;1275;22174;-84
2024/02/21 14:37:57;;;;;;;12.30;5.30;;;;;;;;;;137374;1275;22111;-84
2024/02/21 14:40:59;;;;;;;;;;;;;;;;;;137386;1275;22173;-84
2024/02/21 14:44:03;;;;;;;16.20;5.40;;;;;;;;;;137397;1275;22125;-85
2024/02/21 14:47:06;;;;;;;11.20;5.40;;;;;;;;;;137397;1275;22124;-84
2024/02/21 14:50:08;;;;;;;20.80;6.30;;;;;;;;;;137423;1269;22642;-85
2024/02/21 14:53:16;;;;;;;13.10;6.50;;;;;;;;;;137402;1275;22254;-84
2024/02/21 14:56:19;;;;;;;21.30;6.50;;;;;;;;;;137436;1266;22117;-84
2024/02/21 14:59:22;;;;;;;13.50;5.60;;;;;;;;;;137332;1275;22318;-82
2024/02/21 15:02:24;;;;;;;23.40;5.70;;;;;;;;;;137370;1276;22074;-82
2024/02/21 15:05:27;;;;;;;24.70;5.50;;;;;;;;;;137369;1276;22147;-84
2024/02/21 15:08:30;;;;;;;20.00;5.90;;;;;;;;;;137332;1254;22610;-83
2024/02/21 15:11:35;;;;;;;13.20;5.10;;;;;;;;;;137420;1275;22149;-85
2024/02/21 15:14:38;;;;;;;16.60;5.90;;;;;;;;;;137409;1275;22121;-83
2024/02/21 15:17:42;;;;;;;17.30;7.00;;;;;;;;;;137412;1272;22232;-83
2024/02/21 15:20:44;;;;;;;22.20;7.40;;;;;;;;;;137366;1276;22111;-83
2024/02/21 15:23:47;;;;;;;30.10;7.50;;;;;;;;;;137415;1275;22290;-85
2024/02/21 15:26:49;;;;;;;12.80;7.30;;;;;;;;;;137381;1272;22668;-85
2024/02/21 15:29:52;;;;;;;18.80;7.40;;;;;;;;;;137406;1275;22656;-82
2024/02/21 15:32:55;;;;;;;16.90;7.90;;;;;;;;;;137448;1275;22284;-83
2024/02/21 15:35:58;;;;;;;24.50;7.40;;;;;;;;;;137441;1276;22134;-82
2024/02/21 15:39:02;;;;;;;16.80;7.10;;;;;;;;;;137467;1276;22129;-83
2024/02/21 15:42:05;;;;;;;14.90;7.20;;;;;;;;;;137401;1276;22057;-85
2024/02/21 15:45:08;;;;;;;12.70;7.00;;;;;;;;;;137497;1276;22207;-84
2024/02/21 15:48:11;;;;;;;18.70;8.30;;;;;;;;;;137521;1275;22729;-84
2024/02/21 15:51:15;;;;;;;17.10;7.10;;;;;;;;;;137481;1276;22392;-84
2024/02/21 15:54:18;;;;;;;20.10;7.20;;;;;;;;;;137480;1276;22160;-83
2024/02/21 15:57:20;;;;;;;19.30;7.60;;;;;;;;;;137480;1275;22142;-81
2024/02/21 16:00:23;;;;;;;17.80;7.70;;;;;;;;;;137499;1276;22136;-84
2024/02/21 16:03:26;;;;;;;17.50;8.00;;;;;;;;;;137475;1276;22180;-84
2024/02/21 16:06:29;;;;;;;19.10;7.80;;;;;;;;;;137475;1276;22580;-82
2024/02/21 16:09:31;;;;;;;19.60;8.20;;;;;;;;;;137420;1276;22569;-82
2024/02/21 16:12:34;;;;;;;19.20;8.30;;;;;;;;;;137409;1276;22196;-85
2024/02/21 16:15:37;;;;;;;17.00;9.10;;;;;;;;;;137423;1276;22138;-85
2024/02/21 16:18:39;;;;;;;23.90;8.70;;;;;;;;;;137444;1275;22140;-85
2024/02/21 16:21:42;;;;;;;24.00;8.70;;;;;;;;;;137396;1276;23076;-83
2024/02/21 16:24:49;;;;;;;20.10;10.30;;;;;;;;;;137480;1276;22189;-84
2024/02/21 16:27:51;;;;;;;23.60;9.80;;;;;;;;;;137457;1276;22206;-84
2024/02/21 16:30:56;;;;;;;26.90;10.40;;;;;;;;;;137510;1272;22197;-81
2024/02/21 16:33:58;;;;;;;22.00;10.30;;;;;;;;;;137543;1276;22197;-84
2024/02/21 16:37:04;;;;;;;26.50;11.00;;;;;;;;;;137541;1276;22063;-84
2024/02/21 16:40:08;;;;;;;25.70;9.70;;;;;;;;;;137538;1276;22143;-85
2024/02/21 16:43:10;;;;;;;22.30;10.60;;;;;;;;;;137504;1276;22112;-84
2024/02/21 16:46:14;;;;;;;24.20;10.70;;;;;;;;;;137431;1275;22580;-84
2024/02/21 16:49:17;;;;;;;28.40;11.50;;;;;;;;;;137384;1265;22196;-77
2024/02/21 16:52:20;;;;;;;28.20;11.40;;;;;;;;;;137380;1275;23016;-80
2024/02/21 16:55:22;;;;;;;28.50;12.80;;;;;;;;;;137344;1276;22111;-80
2024/02/21 16:58:25;;;;;;;27.20;11.50;;;;;;;;;;137438;1275;22162;-82
2024/02/21 17:01:28;;;;;;;30.10;10.60;;;;;;;;;;137421;1276;22137;-85
2024/02/21 17:04:30;;;;;;;26.70;12.10;;;;;;;;;;137428;1276;22198;-84
2024/02/21 17:07:33;;;;;;;27.30;11.60;;;;;;;;;;137419;1276;22127;-84
2024/02/21 17:10:39;;;;;;;25.60;11.30;;;;;;;;;;137412;1276;22174;-84
2024/02/21 17:13:42;;;;;;;26.70;11.30;;;;;;;;;;137417;1275;22366;-84
2024/02/21 17:16:44;;;;;;;21.30;10.30;;;;;;;;;;137477;1276;22333;-84
2024/02/21 17:19:47;;;;;;;19.70;10.10;;;;;;;;;;137456;1276;22634;-84
2024/02/21 17:22:49;;;;;;;20.50;9.80;;;;;;;;;;137494;1272;22582;-85
2024/02/21 17:25:52;;;;;;;20.40;10.70;;;;;;;;;;137493;1276;22135;-84
2024/02/21 17:28:55;;;;;;;24.20;11.00;;;;;;;;;;137420;1276;22589;-83
2024/02/21 17:31:57;;;;;;;22.10;10.70;;;;;;;;;;137393;1276;22179;-85
2024/02/21 17:35:00;;;;;;;24.20;10.50;;;;;;;;;;137431;1276;22246;-82
2024/02/21 17:38:03;;;;;;;22.70;10.10;;;;;;;;;;137420;1276;22192;-84
2024/02/21 17:41:05;;;;;;;23.10;10.40;;;;;;;;;;137434;1276;22160;-83
2024/02/21 17:44:08;;;;;;;25.90;11.00;;;;;;;;;;137395;1276;22116;-82